AFR21KE LFPG-EHAM
Flight info
| Callsign | AFR21KE |
|---|---|
| Flight time | N/A |
| Altitude | 28000 |
| Route | NURMO DCT ADUTO N873 FERDI Y18 DENUT |
| Aircraft | A320/M-SDE2E3FGIJ1RWY/HB1 |
Departure
| Time | 2026-05-07 16:12 |
|---|---|
| Airport | Charles de Gaulle International Airport (LFPG) |
Arrival
| Time | N/A |
|---|---|
| Airport | Amsterdam Airport Schiphol (EHAM) |
| Time | Latitude | Longitude | Altitude | Speed | Heading |
|---|---|---|---|---|---|
| 2026-05-07 15:42 | 49.00733 | 2.57848 | 360 ft | 0 kts | 167° |
| 2026-05-07 16:00 | 49.00750 | 2.57841 | 364 ft | 3 kts | 167° |
| 2026-05-07 16:01 | 49.00770 | 2.57836 | 362 ft | 3 kts | 191° |
| 2026-05-07 16:01 | 49.00785 | 2.57848 | 364 ft | 3 kts | 256° |
| 2026-05-07 16:01 | 49.00786 | 2.57882 | 359 ft | 3 kts | 271° |
| 2026-05-07 16:01 | 49.00786 | 2.57900 | 364 ft | 0 kts | 265° |
| 2026-05-07 16:05 | 49.00783 | 2.57846 | 364 ft | 11 kts | 265° |
| 2026-05-07 16:05 | 49.00802 | 2.57741 | 356 ft | 10 kts | 328° |
| 2026-05-07 16:05 | 49.00867 | 2.57719 | 356 ft | 9 kts | 329° |
| 2026-05-07 16:06 | 49.00884 | 2.57638 | 355 ft | 10 kts | 264° |
| 2026-05-07 16:06 | 49.00876 | 2.57496 | 360 ft | 15 kts | 265° |
| 2026-05-07 16:06 | 49.00868 | 2.57347 | 355 ft | 14 kts | 265° |
| 2026-05-07 16:06 | 49.00860 | 2.57209 | 355 ft | 13 kts | 264° |
| 2026-05-07 16:07 | 49.00850 | 2.57037 | 359 ft | 19 kts | 265° |
| 2026-05-07 16:07 | 49.00838 | 2.56819 | 355 ft | 22 kts | 265° |
| 2026-05-07 16:07 | 49.00828 | 2.56572 | 355 ft | 25 kts | 264° |
| 2026-05-07 16:07 | 49.00801 | 2.56299 | 355 ft | 27 kts | 261° |
| 2026-05-07 16:08 | 49.00774 | 2.56000 | 355 ft | 30 kts | 262° |
| 2026-05-07 16:08 | 49.00755 | 2.55789 | 355 ft | 31 kts | 262° |
| 2026-05-07 16:08 | 49.00730 | 2.55485 | 357 ft | 19 kts | 263° |
| 2026-05-07 16:08 | 49.00698 | 2.55300 | 356 ft | 15 kts | 242° |
| 2026-05-07 16:09 | 49.00621 | 2.55252 | 361 ft | 12 kts | 161° |
| 2026-05-07 16:09 | 49.00522 | 2.55301 | 361 ft | 18 kts | 162° |
| 2026-05-07 16:09 | 49.00382 | 2.55357 | 359 ft | 23 kts | 164° |
| 2026-05-07 16:09 | 49.00217 | 2.55429 | 361 ft | 26 kts | 163° |
| 2026-05-07 16:10 | 49.00065 | 2.55493 | 362 ft | 18 kts | 167° |
| 2026-05-07 16:10 | 48.99939 | 2.55551 | 358 ft | 20 kts | 155° |
| 2026-05-07 16:10 | 48.99847 | 2.55685 | 358 ft | 12 kts | 114° |
| 2026-05-07 16:10 | 48.99800 | 2.55792 | 358 ft | 12 kts | 151° |
| 2026-05-07 16:11 | 48.99721 | 2.55807 | 354 ft | 11 kts | 175° |
| 2026-05-07 16:11 | 48.99646 | 2.55822 | 354 ft | 11 kts | 172° |
| 2026-05-07 16:11 | 48.99602 | 2.55870 | 355 ft | 7 kts | 100° |
| 2026-05-07 16:11 | 48.99602 | 2.55891 | 353 ft | 0 kts | 88° |
| 2026-05-07 16:12 | 48.99602 | 2.55914 | 353 ft | 12 kts | 87° |
| 2026-05-07 16:12 | 48.99634 | 2.56479 | 356 ft | 93 kts | 85° |
| 2026-05-07 16:12 | 48.99704 | 2.57811 | 371 ft | 154 kts | 83° |
| 2026-05-07 16:12 | 48.99793 | 2.59434 | 1092 ft | 154 kts | 83° |
| 2026-05-07 16:13 | 48.99875 | 2.61093 | 1855 ft | 160 kts | 84° |
| 2026-05-07 16:13 | 48.99945 | 2.62804 | 2571 ft | 164 kts | 85° |
| 2026-05-07 16:13 | 49.00031 | 2.64529 | 3357 ft | 163 kts | 84° |
| 2026-05-07 16:13 | 49.00129 | 2.66298 | 3957 ft | 177 kts | 84° |
| 2026-05-07 16:14 | 49.00240 | 2.68285 | 4366 ft | 200 kts | 85° |
| 2026-05-07 16:14 | 49.00363 | 2.70516 | 4750 ft | 224 kts | 85° |
| 2026-05-07 16:14 | 49.00497 | 2.73023 | 5219 ft | 250 kts | 85° |
| 2026-05-07 16:14 | 49.00642 | 2.75771 | 5922 ft | 267 kts | 86° |
| 2026-05-07 16:15 | 49.00793 | 2.78631 | 6867 ft | 274 kts | 86° |
| 2026-05-07 16:15 | 49.00946 | 2.81554 | 7828 ft | 280 kts | 86° |
| 2026-05-07 16:15 | 49.01269 | 2.84496 | 8774 ft | 287 kts | 69° |
| 2026-05-07 16:15 | 49.02371 | 2.87045 | 9713 ft | 294 kts | 43° |
| 2026-05-07 16:16 | 49.04120 | 2.88660 | 10593 ft | 299 kts | 17° |
| 2026-05-07 16:16 | 49.06231 | 2.89063 | 11054 ft | 319 kts | 354° |
| 2026-05-07 16:16 | 49.08484 | 2.88669 | 11684 ft | 331 kts | 352° |
| 2026-05-07 16:16 | 49.10788 | 2.88238 | 12528 ft | 336 kts | 351° |
| 2026-05-07 16:17 | 49.13127 | 2.87804 | 13398 ft | 341 kts | 351° |
| 2026-05-07 16:17 | 49.15626 | 2.87347 | 14253 ft | 346 kts | 351° |
| 2026-05-07 16:17 | 49.18028 | 2.86917 | 15022 ft | 349 kts | 351° |
| 2026-05-07 16:17 | 49.20456 | 2.86491 | 15789 ft | 353 kts | 351° |
| 2026-05-07 16:18 | 49.22912 | 2.86064 | 16555 ft | 357 kts | 351° |
| 2026-05-07 16:18 | 49.25394 | 2.85634 | 17317 ft | 361 kts | 351° |
| 2026-05-07 16:18 | 49.27906 | 2.85195 | 18082 ft | 365 kts | 351° |
| 2026-05-07 16:18 | 49.30444 | 2.84750 | 18756 ft | 369 kts | 351° |
| 2026-05-07 16:19 | 49.33009 | 2.84303 | 19409 ft | 373 kts | 351° |
| 2026-05-07 16:19 | 49.35598 | 2.83853 | 20066 ft | 376 kts | 351° |
| 2026-05-07 16:19 | 49.38210 | 2.83396 | 20723 ft | 380 kts | 351° |
| 2026-05-07 16:19 | 49.40844 | 2.82930 | 21375 ft | 383 kts | 351° |
| 2026-05-07 16:20 | 49.43506 | 2.82458 | 22020 ft | 387 kts | 351° |
| 2026-05-07 16:20 | 49.46191 | 2.81988 | 22667 ft | 390 kts | 351° |
| 2026-05-07 16:20 | 49.48901 | 2.81514 | 23316 ft | 394 kts | 351° |
| 2026-05-07 16:20 | 49.51635 | 2.81032 | 23901 ft | 397 kts | 351° |
| 2026-05-07 16:21 | 49.54391 | 2.80545 | 24427 ft | 400 kts | 351° |
| 2026-05-07 16:21 | 49.57171 | 2.80057 | 24958 ft | 403 kts | 351° |
| 2026-05-07 16:21 | 49.59967 | 2.79565 | 25458 ft | 406 kts | 351° |
| 2026-05-07 16:21 | 49.62785 | 2.79065 | 25968 ft | 409 kts | 351° |
| 2026-05-07 16:22 | 49.65620 | 2.78560 | 26462 ft | 411 kts | 351° |
| 2026-05-07 16:22 | 49.68471 | 2.78048 | 26953 ft | 414 kts | 351° |
| 2026-05-07 16:22 | 49.71341 | 2.77533 | 27435 ft | 416 kts | 351° |
| 2026-05-07 16:22 | 49.74226 | 2.77022 | 27886 ft | 419 kts | 351° |
| 2026-05-07 16:23 | 49.77124 | 2.76509 | 28022 ft | 417 kts | 351° |
| 2026-05-07 16:23 | 49.79963 | 2.76220 | 28037 ft | 402 kts | 359° |
| 2026-05-07 16:23 | 49.82710 | 2.76727 | 28047 ft | 396 kts | 10° |
| 2026-05-07 16:23 | 49.85330 | 2.78020 | 28052 ft | 396 kts | 21° |
| 2026-05-07 16:24 | 49.87776 | 2.80002 | 28044 ft | 397 kts | 27° |
| 2026-05-07 16:24 | 49.92595 | 2.84208 | 28045 ft | 397 kts | 27° |
| 2026-05-07 16:25 | 49.97416 | 2.88397 | 28039 ft | 397 kts | 27° |
| 2026-05-07 16:25 | 50.02237 | 2.92596 | 28049 ft | 397 kts | 27° |
| 2026-05-07 16:26 | 50.07051 | 2.96800 | 28045 ft | 397 kts | 27° |
| 2026-05-07 16:26 | 50.11858 | 3.01019 | 28044 ft | 397 kts | 27° |
| 2026-05-07 16:27 | 50.16661 | 3.05249 | 28063 ft | 397 kts | 27° |
| 2026-05-07 16:27 | 50.21469 | 3.09483 | 28064 ft | 397 kts | 27° |
| 2026-05-07 16:28 | 50.26277 | 3.13721 | 28054 ft | 397 kts | 27° |
| 2026-05-07 16:28 | 50.31083 | 3.17968 | 28062 ft | 397 kts | 27° |
| 2026-05-07 16:29 | 50.35885 | 3.22232 | 28069 ft | 397 kts | 27° |
| 2026-05-07 16:29 | 50.40654 | 3.26474 | 28068 ft | 397 kts | 27° |
| 2026-05-07 16:30 | 50.45456 | 3.30761 | 28068 ft | 397 kts | 28° |
| 2026-05-07 16:30 | 50.50254 | 3.35061 | 28069 ft | 397 kts | 28° |
| 2026-05-07 16:31 | 50.55240 | 3.38741 | 28069 ft | 396 kts | 21° |
| 2026-05-07 16:31 | 50.60290 | 3.42199 | 28077 ft | 396 kts | 21° |
| 2026-05-07 16:32 | 50.65339 | 3.45674 | 28070 ft | 396 kts | 21° |
| 2026-05-07 16:32 | 50.70391 | 3.49163 | 28071 ft | 397 kts | 21° |
| 2026-05-07 16:33 | 50.75446 | 3.52666 | 28066 ft | 397 kts | 22° |
| 2026-05-07 16:33 | 50.80499 | 3.56187 | 28071 ft | 397 kts | 22° |
| 2026-05-07 16:34 | 50.85552 | 3.59713 | 28075 ft | 397 kts | 22° |
| 2026-05-07 16:34 | 50.90661 | 3.62987 | 28075 ft | 395 kts | 13° |
| 2026-05-07 16:35 | 50.98303 | 3.64137 | 27747 ft | 389 kts | 360° |